首页
METAR-TAF:

METAR-TAF

机场 :

艾登, 土耳其

纬度: 37-48-54N, 经度: 27-53-21E, 海拔: 31米

当前天气观测

该预报发布于6小时和19分钟前的18:50 UTC
风速9节,风向西转西北
温度 29°C
湿度 37%
气压 1006 hPa
能见度10公里或以上
1500米以下无云,无积雨云

METAR: LTBD 171850Z 30009KT CAVOK 29/13 Q1006

时间: 04:09 (01:09 UTC)

预报

该预报发布于11小时和29分钟前的13:40 UTC
预报有效从17日的 15点(UTC)到 17日的 24点(UTC)
风速12节,风向西
能见度10公里或以上
1500米以下无云,无积雨云
成为
从 17日的 17点(UTC)到 17日的 19点(UTC)
风速2节,风向多变

TAF: LTBD 171340Z 1715/1724 27012KT CAVOK BECMG 1717/1719 VRB02KT

超过4000个机场的气象观测和天气预报(METAR&TAF报告)。

可查询的气象台以黄色和红色小点在地图上表示。

将鼠标移到小点上方,可查看气象台名称。

然后点击查看天气观测和预报。

如需切换地图:点击带黑十字的绿色按钮放大地图;点击带横线的绿色按钮缩小地图;或者点击绿色箭头查看邻近地区的地图。


METAR-TAF: